Aurora, Brazil
Current Conditions -  °F | °C
As of 6:00 PM on Monday 24 Nov 2014 (Local Time) from SBJU Reporting Station
Few Clouds Few Clouds  
Wind Chill: 34°   Ceiling: Unl
Heat Index: 34°   Visibility: 6mi
Dew Point: 15°   Wind: 2mph
Humidity: 32%   Direction: 70°ENE
Pressure: 29.94"   Gusts: NA
Location:  6.94°S, 38.97°W
Report Text: SBJU 242100Z 07002KT 9999 FEW021 34/15 Q1014
Loading
Personal Weather Stations






























Interactive Weather Map New forecast layout! Learn more

10-Day Weather Forecast

Advertisements
Track Severe Weather on mobile